sensor_id;sensor_type;location;lat;lon;timestamp;temperature;humidity
18041;DHT22;9145;48.588;9.250;2023-11-22T00:01:10;8.60;99.90
18041;DHT22;9145;48.588;9.250;2023-11-22T00:03:37;8.60;99.90
18041;DHT22;9145;48.588;9.250;2023-11-22T00:06:05;8.50;99.90
18041;DHT22;9145;48.588;9.250;2023-11-22T00:08:33;8.60;99.90
18041;DHT22;9145;48.588;9.250;2023-11-22T00:10:59;8.60;99.90
18041;DHT22;9145;48.588;9.250;2023-11-22T00:13:28;8.60;99.90
18041;DHT22;9145;48.588;9.250;2023-11-22T00:15:54;8.60;99.90
18041;DHT22;9145;48.588;9.250;2023-11-22T00:18:22;8.60;99.90
18041;DHT22;9145;48.588;9.250;2023-11-22T00:20:49;8.60;99.90
18041;DHT22;9145;48.588;9.250;2023-11-22T00:23:16;8.60;99.90
18041;DHT22;9145;48.588;9.250;2023-11-22T00:25:43;8.70;99.90
18041;DHT22;9145;48.588;9.250;2023-11-22T00:28:10;8.70;99.90
18041;DHT22;9145;48.588;9.250;2023-11-22T00:30:39;8.70;99.90
18041;DHT22;9145;48.588;9.250;2023-11-22T00:33:06;8.70;99.90
18041;DHT22;9145;48.588;9.250;2023-11-22T00:35:32;8.60;99.90
18041;DHT22;9145;48.588;9.250;2023-11-22T00:37:59;8.70;99.90
18041;DHT22;9145;48.588;9.250;2023-11-22T00:40:26;8.70;99.90
18041;DHT22;9145;48.588;9.250;2023-11-22T00:42:53;8.70;99.90
18041;DHT22;9145;48.588;9.250;2023-11-22T00:45:20;8.70;99.90
18041;DHT22;9145;48.588;9.250;2023-11-22T00:47:48;8.60;99.90
18041;DHT22;9145;48.588;9.250;2023-11-22T00:50:16;8.60;99.90
18041;DHT22;9145;48.588;9.250;2023-11-22T00:52:45;8.60;99.90
18041;DHT22;9145;48.588;9.250;2023-11-22T00:55:12;8.60;99.90
18041;DHT22;9145;48.588;9.250;2023-11-22T00:57:39;8.60;99.90
18041;DHT22;9145;48.588;9.250;2023-11-22T01:00:07;8.50;99.90
18041;DHT22;9145;48.588;9.250;2023-11-22T01:02:35;8.40;99.90
18041;DHT22;9145;48.588;9.250;2023-11-22T01:05:05;8.10;99.90
18041;DHT22;9145;48.588;9.250;2023-11-22T01:07:35;7.90;99.90
18041;DHT22;9145;48.588;9.250;2023-11-22T01:10:02;7.80;99.90
18041;DHT22;9145;48.588;9.250;2023-11-22T01:12:29;7.70;99.90
18041;DHT22;9145;48.588;9.250;2023-11-22T01:14:56;7.70;99.90
18041;DHT22;9145;48.588;9.250;2023-11-22T01:17:22;7.60;99.90
18041;DHT22;9145;48.588;9.250;2023-11-22T01:19:50;7.50;99.90
18041;DHT22;9145;48.588;9.250;2023-11-22T01:22:19;7.40;99.90
18041;DHT22;9145;48.588;9.250;2023-11-22T01:24:46;7.30;99.90
18041;DHT22;9145;48.588;9.250;2023-11-22T01:27:13;7.30;99.90
18041;DHT22;9145;48.588;9.250;2023-11-22T01:29:39;7.20;99.90
18041;DHT22;9145;48.588;9.250;2023-11-22T01:32:07;7.20;99.90
18041;DHT22;9145;48.588;9.250;2023-11-22T01:34:34;7.20;99.90
18041;DHT22;9145;48.588;9.250;2023-11-22T01:37:02;7.10;99.90
18041;DHT22;9145;48.588;9.250;2023-11-22T01:39:31;6.90;99.90
18041;DHT22;9145;48.588;9.250;2023-11-22T01:41:58;6.90;99.90
18041;DHT22;9145;48.588;9.250;2023-11-22T01:44:25;6.70;99.90
18041;DHT22;9145;48.588;9.250;2023-11-22T01:46:52;6.60;99.90
18041;DHT22;9145;48.588;9.250;2023-11-22T01:49:19;6.60;99.90
18041;DHT22;9145;48.588;9.250;2023-11-22T01:51:46;6.50;99.90
18041;DHT22;9145;48.588;9.250;2023-11-22T01:54:14;6.60;99.90
18041;DHT22;9145;48.588;9.250;2023-11-22T01:56:44;6.50;99.90
18041;DHT22;9145;48.588;9.250;2023-11-22T01:59:11;6.50;99.90
18041;DHT22;9145;48.588;9.250;2023-11-22T02:01:39;6.50;99.90
18041;DHT22;9145;48.588;9.250;2023-11-22T02:04:06;6.50;99.90
18041;DHT22;9145;48.588;9.250;2023-11-22T02:06:33;6.50;99.90
18041;DHT22;9145;48.588;9.250;2023-11-22T02:09:01;6.50;99.90
18041;DHT22;9145;48.588;9.250;2023-11-22T02:11:28;6.50;99.90
18041;DHT22;9145;48.588;9.250;2023-11-22T02:13:56;6.40;99.90
18041;DHT22;9145;48.588;9.250;2023-11-22T02:16:22;6.30;99.90
18041;DHT22;9145;48.588;9.250;2023-11-22T02:18:49;6.30;99.90
18041;DHT22;9145;48.588;9.250;2023-11-22T02:21:17;6.30;99.90
18041;DHT22;9145;48.588;9.250;2023-11-22T02:23:45;6.30;99.90
18041;DHT22;9145;48.588;9.250;2023-11-22T02:26:12;6.30;99.90
18041;DHT22;9145;48.588;9.250;2023-11-22T02:28:43;6.30;99.90
18041;DHT22;9145;48.588;9.250;2023-11-22T02:31:10;6.40;99.90
18041;DHT22;9145;48.588;9.250;2023-11-22T02:33:36;6.50;99.90
18041;DHT22;9145;48.588;9.250;2023-11-22T02:36:04;6.50;99.90
18041;DHT22;9145;48.588;9.250;2023-11-22T02:38:31;6.60;99.90
18041;DHT22;9145;48.588;9.250;2023-11-22T02:40:59;6.60;99.90
18041;DHT22;9145;48.588;9.250;2023-11-22T02:43:26;6.60;99.90
18041;DHT22;9145;48.588;9.250;2023-11-22T02:45:53;6.60;99.90
18041;DHT22;9145;48.588;9.250;2023-11-22T02:48:20;6.50;99.90
18041;DHT22;9145;48.588;9.250;2023-11-22T02:50:46;6.40;99.90
18041;DHT22;9145;48.588;9.250;2023-11-22T02:53:14;6.40;99.90
18041;DHT22;9145;48.588;9.250;2023-11-22T02:55:41;6.30;99.90
18041;DHT22;9145;48.588;9.250;2023-11-22T02:58:09;6.30;99.90
18041;DHT22;9145;48.588;9.250;2023-11-22T03:00:38;6.20;99.90
18041;DHT22;9145;48.588;9.250;2023-11-22T03:03:06;6.10;99.90
18041;DHT22;9145;48.588;9.250;2023-11-22T03:05:35;6.10;99.90
18041;DHT22;9145;48.588;9.250;2023-11-22T03:08:03;6.10;99.90
18041;DHT22;9145;48.588;9.250;2023-11-22T03:10:32;6.00;99.90
18041;DHT22;9145;48.588;9.250;2023-11-22T03:12:59;5.90;99.90
18041;DHT22;9145;48.588;9.250;2023-11-22T03:15:27;5.80;99.90
18041;DHT22;9145;48.588;9.250;2023-11-22T03:17:54;5.70;99.90
18041;DHT22;9145;48.588;9.250;2023-11-22T03:20:21;5.60;99.90
18041;DHT22;9145;48.588;9.250;2023-11-22T03:22:47;5.60;99.90
18041;DHT22;9145;48.588;9.250;2023-11-22T03:25:16;5.50;99.90
18041;DHT22;9145;48.588;9.250;2023-11-22T03:27:43;5.50;99.90
18041;DHT22;9145;48.588;9.250;2023-11-22T03:30:13;5.40;99.90
18041;DHT22;9145;48.588;9.250;2023-11-22T03:32:42;5.40;99.90
18041;DHT22;9145;48.588;9.250;2023-11-22T03:35:09;5.50;99.90
18041;DHT22;9145;48.588;9.250;2023-11-22T03:37:36;5.40;99.90
18041;DHT22;9145;48.588;9.250;2023-11-22T03:40:04;5.40;99.90
18041;DHT22;9145;48.588;9.250;2023-11-22T03:42:30;5.30;99.90
18041;DHT22;9145;48.588;9.250;2023-11-22T03:44:57;5.20;99.90
18041;DHT22;9145;48.588;9.250;2023-11-22T03:47:25;5.20;99.90
18041;DHT22;9145;48.588;9.250;2023-11-22T03:49:53;5.00;99.90
18041;DHT22;9145;48.588;9.250;2023-11-22T03:52:20;4.90;99.90
18041;DHT22;9145;48.588;9.250;2023-11-22T03:54:46;4.80;99.90
18041;DHT22;9145;48.588;9.250;2023-11-22T03:57:13;4.80;99.90
18041;DHT22;9145;48.588;9.250;2023-11-22T03:59:41;4.80;99.90
18041;DHT22;9145;48.588;9.250;2023-11-22T04:02:08;4.90;99.90
18041;DHT22;9145;48.588;9.250;2023-11-22T04:04:35;4.90;99.90
18041;DHT22;9145;48.588;9.250;2023-11-22T04:07:06;4.80;99.90
18041;DHT22;9145;48.588;9.250;2023-11-22T04:09:33;4.80;99.90
18041;DHT22;9145;48.588;9.250;2023-11-22T04:12:00;4.70;99.90
18041;DHT22;9145;48.588;9.250;2023-11-22T04:14:27;4.70;99.90
18041;DHT22;9145;48.588;9.250;2023-11-22T04:16:54;4.80;99.90
18041;DHT22;9145;48.588;9.250;2023-11-22T04:19:21;4.80;99.90
18041;DHT22;9145;48.588;9.250;2023-11-22T04:21:47;4.70;99.90
18041;DHT22;9145;48.588;9.250;2023-11-22T04:24:16;4.80;99.90
18041;DHT22;9145;48.588;9.250;2023-11-22T04:26:43;4.80;99.90
18041;DHT22;9145;48.588;9.250;2023-11-22T04:29:10;4.80;99.90
18041;DHT22;9145;48.588;9.250;2023-11-22T04:31:36;4.80;99.90
18041;DHT22;9145;48.588;9.250;2023-11-22T04:34:03;5.00;99.90
18041;DHT22;9145;48.588;9.250;2023-11-22T04:36:30;5.00;99.90
18041;DHT22;9145;48.588;9.250;2023-11-22T04:38:57;4.90;99.90
18041;DHT22;9145;48.588;9.250;2023-11-22T04:41:25;5.00;99.90
18041;DHT22;9145;48.588;9.250;2023-11-22T04:43:52;5.00;99.90
18041;DHT22;9145;48.588;9.250;2023-11-22T04:46:19;5.00;99.90
18041;DHT22;9145;48.588;9.250;2023-11-22T04:48:46;5.00;99.90
18041;DHT22;9145;48.588;9.250;2023-11-22T04:51:16;5.00;99.90
18041;DHT22;9145;48.588;9.250;2023-11-22T04:53:44;5.10;99.90
18041;DHT22;9145;48.588;9.250;2023-11-22T04:56:10;5.10;99.90
18041;DHT22;9145;48.588;9.250;2023-11-22T04:58:39;5.10;99.90
18041;DHT22;9145;48.588;9.250;2023-11-22T05:01:05;5.10;99.90
18041;DHT22;9145;48.588;9.250;2023-11-22T05:03:37;5.10;99.90
18041;DHT22;9145;48.588;9.250;2023-11-22T05:06:04;5.10;99.90
18041;DHT22;9145;48.588;9.250;2023-11-22T05:08:32;5.10;99.90
18041;DHT22;9145;48.588;9.250;2023-11-22T05:10:59;5.00;99.90
18041;DHT22;9145;48.588;9.250;2023-11-22T05:13:26;5.10;99.90
18041;DHT22;9145;48.588;9.250;2023-11-22T05:15:54;5.10;99.90
18041;DHT22;9145;48.588;9.250;2023-11-22T05:18:21;5.10;99.90
18041;DHT22;9145;48.588;9.250;2023-11-22T05:20:48;5.10;99.90
18041;DHT22;9145;48.588;9.250;2023-11-22T05:23:15;5.00;99.90
18041;DHT22;9145;48.588;9.250;2023-11-22T05:25:42;5.00;99.90
18041;DHT22;9145;48.588;9.250;2023-11-22T05:28:09;5.00;99.90
18041;DHT22;9145;48.588;9.250;2023-11-22T05:30:36;5.00;99.90
18041;DHT22;9145;48.588;9.250;2023-11-22T05:33:04;5.10;99.90
18041;DHT22;9145;48.588;9.250;2023-11-22T05:35:31;5.00;99.90
18041;DHT22;9145;48.588;9.250;2023-11-22T05:37:58;5.00;99.90
18041;DHT22;9145;48.588;9.250;2023-11-22T05:40:25;5.00;99.90
18041;DHT22;9145;48.588;9.250;2023-11-22T05:42:52;5.00;99.90
18041;DHT22;9145;48.588;9.250;2023-11-22T05:45:19;4.90;99.90
18041;DHT22;9145;48.588;9.250;2023-11-22T05:47:46;4.80;99.90
18041;DHT22;9145;48.588;9.250;2023-11-22T05:50:14;4.80;99.90
18041;DHT22;9145;48.588;9.250;2023-11-22T05:52:41;4.90;99.90
18041;DHT22;9145;48.588;9.250;2023-11-22T05:55:08;4.90;99.90
18041;DHT22;9145;48.588;9.250;2023-11-22T05:57:35;4.80;99.90
18041;DHT22;9145;48.588;9.250;2023-11-22T06:00:03;4.70;99.90
18041;DHT22;9145;48.588;9.250;2023-11-22T06:02:29;4.70;99.90
18041;DHT22;9145;48.588;9.250;2023-11-22T06:04:56;4.80;99.90
18041;DHT22;9145;48.588;9.250;2023-11-22T06:07:25;4.80;99.90
18041;DHT22;9145;48.588;9.250;2023-11-22T06:09:52;4.90;99.90
18041;DHT22;9145;48.588;9.250;2023-11-22T06:12:19;4.90;99.90
18041;DHT22;9145;48.588;9.250;2023-11-22T06:14:47;4.90;99.90
18041;DHT22;9145;48.588;9.250;2023-11-22T06:17:14;4.90;99.90
18041;DHT22;9145;48.588;9.250;2023-11-22T06:19:41;4.90;99.90
18041;DHT22;9145;48.588;9.250;2023-11-22T06:22:08;5.00;99.90
18041;DHT22;9145;48.588;9.250;2023-11-22T06:24:36;5.00;99.90
18041;DHT22;9145;48.588;9.250;2023-11-22T06:27:03;5.00;99.90
18041;DHT22;9145;48.588;9.250;2023-11-22T06:29:31;5.10;99.90
18041;DHT22;9145;48.588;9.250;2023-11-22T06:31:57;5.10;99.90
18041;DHT22;9145;48.588;9.250;2023-11-22T06:34:24;5.10;99.90
18041;DHT22;9145;48.588;9.250;2023-11-22T06:36:51;5.00;99.90
18041;DHT22;9145;48.588;9.250;2023-11-22T06:39:18;5.10;99.90
18041;DHT22;9145;48.588;9.250;2023-11-22T06:41:46;5.00;99.90
18041;DHT22;9145;48.588;9.250;2023-11-22T06:44:13;5.10;99.90
18041;DHT22;9145;48.588;9.250;2023-11-22T06:46:40;5.10;99.90
18041;DHT22;9145;48.588;9.250;2023-11-22T06:49:07;5.00;99.90
18041;DHT22;9145;48.588;9.250;2023-11-22T06:51:34;5.00;99.90
18041;DHT22;9145;48.588;9.250;2023-11-22T06:54:01;4.90;99.90
18041;DHT22;9145;48.588;9.250;2023-11-22T06:56:28;4.90;99.90
18041;DHT22;9145;48.588;9.250;2023-11-22T06:58:56;5.00;99.90
18041;DHT22;9145;48.588;9.250;2023-11-22T07:01:23;5.00;99.90
18041;DHT22;9145;48.588;9.250;2023-11-22T07:03:51;4.90;99.90
18041;DHT22;9145;48.588;9.250;2023-11-22T07:06:19;4.90;99.90
18041;DHT22;9145;48.588;9.250;2023-11-22T07:08:48;4.90;99.90
18041;DHT22;9145;48.588;9.250;2023-11-22T07:11:21;4.90;99.90
18041;DHT22;9145;48.588;9.250;2023-11-22T07:13:48;5.00;99.90
18041;DHT22;9145;48.588;9.250;2023-11-22T07:16:17;4.90;99.90
18041;DHT22;9145;48.588;9.250;2023-11-22T07:18:44;4.90;99.90
18041;DHT22;9145;48.588;9.250;2023-11-22T07:21:11;4.90;99.90
18041;DHT22;9145;48.588;9.250;2023-11-22T07:23:38;4.90;99.90
18041;DHT22;9145;48.588;9.250;2023-11-22T07:26:05;4.90;99.90
18041;DHT22;9145;48.588;9.250;2023-11-22T07:28:32;4.90;99.90
18041;DHT22;9145;48.588;9.250;2023-11-22T07:31:01;5.00;99.90
18041;DHT22;9145;48.588;9.250;2023-11-22T07:33:29;5.00;99.90
18041;DHT22;9145;48.588;9.250;2023-11-22T07:35:56;4.90;99.90
18041;DHT22;9145;48.588;9.250;2023-11-22T07:38:24;4.90;99.90
18041;DHT22;9145;48.588;9.250;2023-11-22T07:40:51;5.00;99.90
18041;DHT22;9145;48.588;9.250;2023-11-22T07:43:17;5.00;99.90
18041;DHT22;9145;48.588;9.250;2023-11-22T07:45:44;5.00;99.90
18041;DHT22;9145;48.588;9.250;2023-11-22T07:48:13;4.90;99.90
18041;DHT22;9145;48.588;9.250;2023-11-22T07:50:41;4.90;99.90
18041;DHT22;9145;48.588;9.250;2023-11-22T07:53:09;5.00;99.90
18041;DHT22;9145;48.588;9.250;2023-11-22T07:55:37;5.00;99.90
18041;DHT22;9145;48.588;9.250;2023-11-22T07:58:04;5.10;99.90
18041;DHT22;9145;48.588;9.250;2023-11-22T08:00:32;5.10;99.90
18041;DHT22;9145;48.588;9.250;2023-11-22T08:03:00;5.00;99.90
18041;DHT22;9145;48.588;9.250;2023-11-22T08:05:28;5.10;99.90
18041;DHT22;9145;48.588;9.250;2023-11-22T08:08:01;5.10;99.90
18041;DHT22;9145;48.588;9.250;2023-11-22T08:10:32;5.10;99.90
18041;DHT22;9145;48.588;9.250;2023-11-22T08:13:00;5.20;99.90
18041;DHT22;9145;48.588;9.250;2023-11-22T08:15:28;5.20;99.90
18041;DHT22;9145;48.588;9.250;2023-11-22T08:17:57;5.10;99.90
18041;DHT22;9145;48.588;9.250;2023-11-22T08:20:23;5.10;99.90
18041;DHT22;9145;48.588;9.250;2023-11-22T08:22:51;5.10;99.90
18041;DHT22;9145;48.588;9.250;2023-11-22T08:25:19;5.10;99.90
18041;DHT22;9145;48.588;9.250;2023-11-22T08:27:46;5.10;99.90
18041;DHT22;9145;48.588;9.250;2023-11-22T08:30:13;5.10;99.90
18041;DHT22;9145;48.588;9.250;2023-11-22T08:32:42;5.00;99.90
18041;DHT22;9145;48.588;9.250;2023-11-22T08:35:10;5.00;99.90
18041;DHT22;9145;48.588;9.250;2023-11-22T08:37:40;4.90;99.90
18041;DHT22;9145;48.588;9.250;2023-11-22T08:40:08;4.80;99.90
18041;DHT22;9145;48.588;9.250;2023-11-22T08:42:38;4.80;99.90
18041;DHT22;9145;48.588;9.250;2023-11-22T08:45:07;4.70;99.90
18041;DHT22;9145;48.588;9.250;2023-11-22T08:47:35;4.60;99.90
18041;DHT22;9145;48.588;9.250;2023-11-22T08:50:02;4.60;99.90
18041;DHT22;9145;48.588;9.250;2023-11-22T08:52:30;4.60;99.90
18041;DHT22;9145;48.588;9.250;2023-11-22T08:54:57;4.50;99.90
18041;DHT22;9145;48.588;9.250;2023-11-22T08:57:25;4.60;99.90
18041;DHT22;9145;48.588;9.250;2023-11-22T08:59:54;4.60;99.90
18041;DHT22;9145;48.588;9.250;2023-11-22T09:02:20;4.60;99.90
18041;DHT22;9145;48.588;9.250;2023-11-22T09:04:48;4.70;99.90
18041;DHT22;9145;48.588;9.250;2023-11-22T09:07:15;4.70;99.90
18041;DHT22;9145;48.588;9.250;2023-11-22T09:09:41;4.70;99.90
18041;DHT22;9145;48.588;9.250;2023-11-22T09:12:09;4.70;99.90
18041;DHT22;9145;48.588;9.250;2023-11-22T09:14:39;4.60;99.90
18041;DHT22;9145;48.588;9.250;2023-11-22T09:17:07;4.70;99.90
18041;DHT22;9145;48.588;9.250;2023-11-22T09:19:35;4.70;99.90
18041;DHT22;9145;48.588;9.250;2023-11-22T09:22:03;4.60;99.90
18041;DHT22;9145;48.588;9.250;2023-11-22T09:24:32;4.70;99.90
18041;DHT22;9145;48.588;9.250;2023-11-22T09:26:58;4.70;99.90
18041;DHT22;9145;48.588;9.250;2023-11-22T09:29:26;4.60;99.90
18041;DHT22;9145;48.588;9.250;2023-11-22T09:31:53;4.50;99.90
18041;DHT22;9145;48.588;9.250;2023-11-22T09:34:21;4.40;99.90
18041;DHT22;9145;48.588;9.250;2023-11-22T09:36:48;4.40;99.90
18041;DHT22;9145;48.588;9.250;2023-11-22T09:39:15;4.40;99.90
18041;DHT22;9145;48.588;9.250;2023-11-22T09:41:46;4.50;99.90
18041;DHT22;9145;48.588;9.250;2023-11-22T09:44:14;4.60;99.90
18041;DHT22;9145;48.588;9.250;2023-11-22T09:46:42;4.60;99.90
18041;DHT22;9145;48.588;9.250;2023-11-22T09:49:14;4.60;99.90
18041;DHT22;9145;48.588;9.250;2023-11-22T09:51:49;4.70;99.90
18041;DHT22;9145;48.588;9.250;2023-11-22T09:54:18;4.70;99.90
18041;DHT22;9145;48.588;9.250;2023-11-22T09:56:46;4.70;99.90
18041;DHT22;9145;48.588;9.250;2023-11-22T09:59:16;4.70;99.90
18041;DHT22;9145;48.588;9.250;2023-11-22T10:01:44;4.70;99.90
18041;DHT22;9145;48.588;9.250;2023-11-22T10:04:10;4.70;99.90
18041;DHT22;9145;48.588;9.250;2023-11-22T10:06:37;4.70;99.90
18041;DHT22;9145;48.588;9.250;2023-11-22T10:09:07;4.70;99.90
18041;DHT22;9145;48.588;9.250;2023-11-22T10:11:35;4.70;99.90
18041;DHT22;9145;48.588;9.250;2023-11-22T10:14:04;4.60;99.90
18041;DHT22;9145;48.588;9.250;2023-11-22T10:16:31;4.60;99.90
18041;DHT22;9145;48.588;9.250;2023-11-22T10:18:58;4.60;99.90
18041;DHT22;9145;48.588;9.250;2023-11-22T10:21:26;4.60;99.90
18041;DHT22;9145;48.588;9.250;2023-11-22T10:23:56;4.70;99.90
18041;DHT22;9145;48.588;9.250;2023-11-22T10:26:25;4.80;99.90
18041;DHT22;9145;48.588;9.250;2023-11-22T10:28:54;4.80;99.90
18041;DHT22;9145;48.588;9.250;2023-11-22T10:31:21;4.90;99.90
18041;DHT22;9145;48.588;9.250;2023-11-22T10:33:49;4.80;99.90
18041;DHT22;9145;48.588;9.250;2023-11-22T10:36:18;4.70;99.90
18041;DHT22;9145;48.588;9.250;2023-11-22T10:38:45;4.80;99.90
18041;DHT22;9145;48.588;9.250;2023-11-22T10:41:13;4.80;99.90
18041;DHT22;9145;48.588;9.250;2023-11-22T10:43:41;4.80;99.90
18041;DHT22;9145;48.588;9.250;2023-11-22T10:46:08;4.70;99.90
18041;DHT22;9145;48.588;9.250;2023-11-22T10:48:36;4.80;99.90
18041;DHT22;9145;48.588;9.250;2023-11-22T10:51:03;4.70;99.90
18041;DHT22;9145;48.588;9.250;2023-11-22T10:53:32;4.80;99.90
18041;DHT22;9145;48.588;9.250;2023-11-22T10:56:04;4.90;99.90
18041;DHT22;9145;48.588;9.250;2023-11-22T10:58:32;4.90;99.90
18041;DHT22;9145;48.588;9.250;2023-11-22T11:01:04;5.00;99.90
18041;DHT22;9145;48.588;9.250;2023-11-22T11:03:37;5.00;99.90
18041;DHT22;9145;48.588;9.250;2023-11-22T11:06:08;5.00;99.90
18041;DHT22;9145;48.588;9.250;2023-11-22T11:08:38;5.00;99.90
18041;DHT22;9145;48.588;9.250;2023-11-22T11:11:06;5.00;99.90
18041;DHT22;9145;48.588;9.250;2023-11-22T11:13:32;5.10;99.90
18041;DHT22;9145;48.588;9.250;2023-11-22T11:16:01;5.00;99.90
18041;DHT22;9145;48.588;9.250;2023-11-22T11:18:28;5.00;99.90
18041;DHT22;9145;48.588;9.250;2023-11-22T11:20:57;5.00;99.90
18041;DHT22;9145;48.588;9.250;2023-11-22T11:23:25;4.90;99.90
18041;DHT22;9145;48.588;9.250;2023-11-22T11:25:54;4.90;99.90
18041;DHT22;9145;48.588;9.250;2023-11-22T11:28:22;4.80;99.90
18041;DHT22;9145;48.588;9.250;2023-11-22T11:30:51;4.90;99.90
18041;DHT22;9145;48.588;9.250;2023-11-22T11:33:27;4.80;99.90
18041;DHT22;9145;48.588;9.250;2023-11-22T11:35:57;4.90;99.90
18041;DHT22;9145;48.588;9.250;2023-11-22T11:38:30;4.80;99.90
18041;DHT22;9145;48.588;9.250;2023-11-22T11:41:06;4.90;99.90
18041;DHT22;9145;48.588;9.250;2023-11-22T11:43:40;4.90;99.90
18041;DHT22;9145;48.588;9.250;2023-11-22T11:46:07;4.90;99.90
18041;DHT22;9145;48.588;9.250;2023-11-22T11:48:36;4.80;99.90
18041;DHT22;9145;48.588;9.250;2023-11-22T11:51:03;4.70;99.90
18041;DHT22;9145;48.588;9.250;2023-11-22T11:53:32;4.70;99.90
18041;DHT22;9145;48.588;9.250;2023-11-22T11:56:01;4.80;99.90
18041;DHT22;9145;48.588;9.250;2023-11-22T11:58:28;4.80;99.90
18041;DHT22;9145;48.588;9.250;2023-11-22T12:00:55;4.90;99.90
18041;DHT22;9145;48.588;9.250;2023-11-22T12:03:23;4.90;99.90
18041;DHT22;9145;48.588;9.250;2023-11-22T12:05:51;5.00;99.90
18041;DHT22;9145;48.588;9.250;2023-11-22T12:08:18;4.90;99.90
18041;DHT22;9145;48.588;9.250;2023-11-22T12:10:45;4.80;99.90
18041;DHT22;9145;48.588;9.250;2023-11-22T12:13:16;4.80;99.90
18041;DHT22;9145;48.588;9.250;2023-11-22T12:15:43;4.80;99.90
18041;DHT22;9145;48.588;9.250;2023-11-22T12:18:10;4.80;99.90
18041;DHT22;9145;48.588;9.250;2023-11-22T12:20:39;4.90;99.90
18041;DHT22;9145;48.588;9.250;2023-11-22T12:23:08;5.00;99.90
18041;DHT22;9145;48.588;9.250;2023-11-22T12:25:35;4.90;99.90
18041;DHT22;9145;48.588;9.250;2023-11-22T12:28:03;4.90;99.90
18041;DHT22;9145;48.588;9.250;2023-11-22T12:30:31;4.80;99.90
18041;DHT22;9145;48.588;9.250;2023-11-22T12:33:02;4.90;99.90
18041;DHT22;9145;48.588;9.250;2023-11-22T12:35:30;4.80;99.90
18041;DHT22;9145;48.588;9.250;2023-11-22T12:37:58;4.80;99.90
18041;DHT22;9145;48.588;9.250;2023-11-22T12:40:27;4.80;99.90
18041;DHT22;9145;48.588;9.250;2023-11-22T12:42:56;4.80;99.90
18041;DHT22;9145;48.588;9.250;2023-11-22T12:45:24;4.80;99.90
18041;DHT22;9145;48.588;9.250;2023-11-22T12:47:53;4.80;99.90
18041;DHT22;9145;48.588;9.250;2023-11-22T12:50:33;4.70;99.90
18041;DHT22;9145;48.588;9.250;2023-11-22T12:53:08;4.70;99.90
18041;DHT22;9145;48.588;9.250;2023-11-22T12:55:37;4.70;99.90
18041;DHT22;9145;48.588;9.250;2023-11-22T12:58:05;4.80;99.90
18041;DHT22;9145;48.588;9.250;2023-11-22T13:00:33;4.70;99.90
18041;DHT22;9145;48.588;9.250;2023-11-22T13:03:00;4.60;99.90
18041;DHT22;9145;48.588;9.250;2023-11-22T13:05:26;4.60;99.90
18041;DHT22;9145;48.588;9.250;2023-11-22T13:07:53;4.60;99.90
18041;DHT22;9145;48.588;9.250;2023-11-22T13:10:20;4.50;99.90
18041;DHT22;9145;48.588;9.250;2023-11-22T13:12:53;4.60;99.90
18041;DHT22;9145;48.588;9.250;2023-11-22T13:15:20;4.60;99.90
18041;DHT22;9145;48.588;9.250;2023-11-22T13:17:49;4.60;99.90
18041;DHT22;9145;48.588;9.250;2023-11-22T13:20:21;4.70;99.90
18041;DHT22;9145;48.588;9.250;2023-11-22T13:22:48;4.70;99.90
18041;DHT22;9145;48.588;9.250;2023-11-22T13:25:15;4.70;99.90
18041;DHT22;9145;48.588;9.250;2023-11-22T13:27:42;4.70;99.90
18041;DHT22;9145;48.588;9.250;2023-11-22T13:30:10;4.60;99.90
18041;DHT22;9145;48.588;9.250;2023-11-22T13:32:37;4.60;99.90
18041;DHT22;9145;48.588;9.250;2023-11-22T13:35:07;4.50;99.90
18041;DHT22;9145;48.588;9.250;2023-11-22T13:37:40;4.50;99.90
18041;DHT22;9145;48.588;9.250;2023-11-22T13:40:09;4.60;99.90
18041;DHT22;9145;48.588;9.250;2023-11-22T13:42:41;4.50;99.90
18041;DHT22;9145;48.588;9.250;2023-11-22T13:45:09;4.60;99.90
18041;DHT22;9145;48.588;9.250;2023-11-22T13:47:36;4.60;99.90
18041;DHT22;9145;48.588;9.250;2023-11-22T13:50:03;4.70;99.90
18041;DHT22;9145;48.588;9.250;2023-11-22T13:52:30;4.70;99.90
18041;DHT22;9145;48.588;9.250;2023-11-22T13:54:58;4.70;99.90
18041;DHT22;9145;48.588;9.250;2023-11-22T13:57:25;4.60;99.90
18041;DHT22;9145;48.588;9.250;2023-11-22T13:59:51;4.70;99.90
18041;DHT22;9145;48.588;9.250;2023-11-22T14:02:20;4.60;99.90
18041;DHT22;9145;48.588;9.250;2023-11-22T14:04:47;4.60;99.90
18041;DHT22;9145;48.588;9.250;2023-11-22T14:07:14;4.50;99.90
18041;DHT22;9145;48.588;9.250;2023-11-22T14:09:41;4.50;99.90
18041;DHT22;9145;48.588;9.250;2023-11-22T14:12:11;4.50;99.90
18041;DHT22;9145;48.588;9.250;2023-11-22T14:14:37;4.50;99.90
18041;DHT22;9145;48.588;9.250;2023-11-22T14:17:04;4.40;99.90
18041;DHT22;9145;48.588;9.250;2023-11-22T14:19:32;4.40;99.90
18041;DHT22;9145;48.588;9.250;2023-11-22T14:21:59;4.40;99.90
18041;DHT22;9145;48.588;9.250;2023-11-22T14:24:27;4.50;99.90
18041;DHT22;9145;48.588;9.250;2023-11-22T14:26:55;4.30;99.90
18041;DHT22;9145;48.588;9.250;2023-11-22T14:29:25;4.30;99.90
18041;DHT22;9145;48.588;9.250;2023-11-22T14:31:52;4.20;99.90
18041;DHT22;9145;48.588;9.250;2023-11-22T14:34:19;4.10;99.90
18041;DHT22;9145;48.588;9.250;2023-11-22T14:36:47;4.10;99.90
18041;DHT22;9145;48.588;9.250;2023-11-22T14:39:14;4.00;99.90
18041;DHT22;9145;48.588;9.250;2023-11-22T14:41:41;4.10;99.90
18041;DHT22;9145;48.588;9.250;2023-11-22T14:44:10;4.20;99.90
18041;DHT22;9145;48.588;9.250;2023-11-22T14:46:36;4.20;99.90
18041;DHT22;9145;48.588;9.250;2023-11-22T14:49:03;4.30;99.90
18041;DHT22;9145;48.588;9.250;2023-11-22T14:51:31;4.40;99.90
18041;DHT22;9145;48.588;9.250;2023-11-22T14:54:00;4.30;99.90
18041;DHT22;9145;48.588;9.250;2023-11-22T14:56:27;4.30;99.90
18041;DHT22;9145;48.588;9.250;2023-11-22T14:58:54;4.30;99.90
18041;DHT22;9145;48.588;9.250;2023-11-22T15:01:25;4.30;99.90
18041;DHT22;9145;48.588;9.250;2023-11-22T15:03:52;4.30;99.90
18041;DHT22;9145;48.588;9.250;2023-11-22T15:06:19;4.30;99.90
18041;DHT22;9145;48.588;9.250;2023-11-22T15:08:46;4.30;99.90
18041;DHT22;9145;48.588;9.250;2023-11-22T15:11:14;4.30;99.90
18041;DHT22;9145;48.588;9.250;2023-11-22T15:13:41;4.30;99.90
18041;DHT22;9145;48.588;9.250;2023-11-22T15:16:08;4.30;99.90
18041;DHT22;9145;48.588;9.250;2023-11-22T15:18:38;4.30;99.90
18041;DHT22;9145;48.588;9.250;2023-11-22T15:21:05;4.30;99.90
18041;DHT22;9145;48.588;9.250;2023-11-22T15:23:32;4.30;99.90
18041;DHT22;9145;48.588;9.250;2023-11-22T15:25:58;4.30;99.90
18041;DHT22;9145;48.588;9.250;2023-11-22T15:28:27;4.30;99.90
18041;DHT22;9145;48.588;9.250;2023-11-22T15:30:53;4.30;99.90
18041;DHT22;9145;48.588;9.250;2023-11-22T15:33:24;4.30;99.90
18041;DHT22;9145;48.588;9.250;2023-11-22T15:35:51;4.30;99.90
18041;DHT22;9145;48.588;9.250;2023-11-22T15:38:18;4.30;99.90
18041;DHT22;9145;48.588;9.250;2023-11-22T15:40:47;4.30;99.90
18041;DHT22;9145;48.588;9.250;2023-11-22T15:43:14;4.30;99.90
18041;DHT22;9145;48.588;9.250;2023-11-22T15:45:43;4.30;99.90
18041;DHT22;9145;48.588;9.250;2023-11-22T15:48:10;4.30;99.90
18041;DHT22;9145;48.588;9.250;2023-11-22T15:50:38;4.30;99.90
18041;DHT22;9145;48.588;9.250;2023-11-22T15:53:05;4.30;99.90
18041;DHT22;9145;48.588;9.250;2023-11-22T15:55:38;4.30;99.90
18041;DHT22;9145;48.588;9.250;2023-11-22T15:58:05;4.20;99.90
18041;DHT22;9145;48.588;9.250;2023-11-22T16:00:32;4.20;99.90
18041;DHT22;9145;48.588;9.250;2023-11-22T16:03:00;4.30;99.90
18041;DHT22;9145;48.588;9.250;2023-11-22T16:05:29;4.30;99.90